Time;durP1;ratioP1;P1;durP2;ratioP2;P2;SDS_P1;SDS_P2;PMS_P1;PMS_P2;Temp;Humidity;BMP_temperature;BMP_pressure;BME280_temperature;BME280_humidity;BME280_pressure;Samples;Min_cycle;Max_cycle;Signal;HPM_P1;HPM_P2
2024/02/13 00:02:38;;;;;;;18.80;13.18;;;;;;;5.04;100.00;101055.75;10250070;28;20041;-71
2024/02/13 00:07:36;;;;;;;19.70;12.82;;;;;;;5.02;100.00;101060.63;10251317;28;20104;-71
2024/02/13 00:12:33;;;;;;;15.13;11.10;;;;;;;5.13;100.00;101056.81;10243429;28;20045;-72
2024/02/13 00:17:29;;;;;;;12.90;11.20;;;;;;;5.06;100.00;101072.56;10262843;28;20037;-71
2024/02/13 00:22:26;;;;;;;15.38;11.60;;;;;;;5.19;100.00;101074.69;10255172;28;20045;-71
2024/02/13 00:27:23;;;;;;;20.85;11.35;;;;;;;5.17;100.00;101084.19;10263503;28;20037;-73
2024/02/13 00:32:19;;;;;;;15.32;11.05;;;;;;;5.22;100.00;101093.13;10264616;28;20071;-73
2024/02/13 00:37:16;;;;;;;18.05;12.15;;;;;;;5.13;100.00;101094.75;10260461;28;20516;-71
2024/02/13 00:42:12;;;;;;;15.32;11.98;;;;;;;5.02;100.00;101101.28;10266741;28;20041;-71
2024/02/13 00:47:09;;;;;;;14.73;12.75;;;;;;;4.87;100.00;101112.09;10270413;28;20036;-72
2024/02/13 00:52:07;;;;;;;16.77;11.95;;;;;;;4.87;100.00;101121.03;10255916;28;20136;-72
2024/02/13 00:57:05;;;;;;;12.85;11.70;;;;;;;4.77;100.00;101118.31;10269126;28;20393;-72
2024/02/13 01:02:01;;;;;;;16.88;12.77;;;;;;;4.73;100.00;101123.44;10265167;28;20060;-72
2024/02/13 01:06:57;;;;;;;20.23;12.18;;;;;;;4.74;100.00;101146.75;10261376;28;20077;-69
2024/02/13 01:11:54;;;;;;;15.25;13.18;;;;;;;4.65;100.00;101137.53;10251022;28;20152;-69
2024/02/13 01:16:51;;;;;;;14.65;13.23;;;;;;;4.57;100.00;101146.16;10267920;28;20045;-73
2024/02/13 01:21:48;;;;;;;15.00;12.27;;;;;;;4.64;100.00;101144.00;10257356;28;20432;-72
2024/02/13 01:26:44;;;;;;;14.38;12.50;;;;;;;4.60;100.00;101146.47;10269228;28;20052;-73
2024/02/13 01:31:42;;;;;;;12.70;11.60;;;;;;;4.46;100.00;101149.94;10260420;28;20048;-71
2024/02/13 01:36:38;;;;;;;13.45;12.07;;;;;;;4.19;100.00;101161.75;10241022;28;20458;-74
2024/02/13 01:41:35;;;;;;;15.68;12.68;;;;;;;3.98;100.00;101161.66;10259037;28;20044;-72
2024/02/13 01:46:33;;;;;;;13.80;12.55;;;;;;;3.90;100.00;101154.03;10264460;28;20334;-72
2024/02/13 01:51:34;;;;;;;21.02;13.27;;;;;;;3.82;100.00;101157.22;10252649;28;20511;-72
2024/02/13 01:56:33;;;;;;;15.43;13.65;;;;;;;3.74;100.00;101165.84;10252445;28;20049;-71
2024/02/13 02:01:32;;;;;;;20.67;14.18;;;;;;;3.71;100.00;101160.94;10252195;28;20155;-71
2024/02/13 02:06:28;;;;;;;20.13;13.15;;;;;;;3.65;100.00;101168.22;10253441;28;20052;-69
2024/02/13 02:11:25;;;;;;;14.75;13.02;;;;;;;3.70;100.00;101164.72;10261961;28;20416;-72
2024/02/13 02:16:22;;;;;;;14.52;12.85;;;;;;;3.67;100.00;101165.25;10263941;28;20045;-73
2024/02/13 02:21:19;;;;;;;16.35;13.25;;;;;;;3.79;100.00;101165.88;10253098;28;20561;-74
2024/02/13 02:26:15;;;;;;;16.25;12.50;;;;;;;3.81;100.00;101177.25;10254258;28;20041;-73
2024/02/13 02:31:13;;;;;;;24.25;13.80;;;;;;;3.81;100.00;101166.44;10257894;28;20053;-73
2024/02/13 02:36:10;;;;;;;16.95;12.98;;;;;;;3.81;100.00;101182.66;10253872;28;20064;-72
2024/02/13 02:41:07;;;;;;;17.33;12.70;;;;;;;3.75;100.00;101189.09;10246344;28;20080;-73
2024/02/13 02:46:04;;;;;;;17.25;12.95;;;;;;;3.68;100.00;101196.63;10253812;28;20217;-72
2024/02/13 02:51:01;;;;;;;18.40;13.15;;;;;;;3.73;100.00;101191.25;10264808;28;20047;-73
2024/02/13 02:55:57;;;;;;;15.73;12.45;;;;;;;3.81;100.00;101204.31;10266647;28;20087;-73
2024/02/13 03:00:54;;;;;;;23.17;12.63;;;;;;;3.90;100.00;101202.75;10259670;28;20057;-73
2024/02/13 03:05:51;;;;;;;16.67;13.32;;;;;;;4.00;100.00;101202.78;10259619;28;20054;-73
2024/02/13 03:10:48;;;;;;;19.42;12.80;;;;;;;4.06;100.00;101206.34;10241857;28;20045;-73
2024/02/13 03:15:45;;;;;;;13.70;12.38;;;;;;;4.12;100.00;101204.47;10260309;28;20653;-73
2024/02/13 03:20:42;;;;;;;14.57;11.50;;;;;;;4.10;100.00;101206.63;10253487;28;20068;-72
2024/02/13 03:25:39;;;;;;;14.13;12.63;;;;;;;4.12;100.00;101231.53;10265574;28;20056;-72
2024/02/13 03:30:35;;;;;;;17.83;12.18;;;;;;;4.21;100.00;101232.69;10252920;28;20099;-73
2024/02/13 03:35:32;;;;;;;13.77;11.50;;;;;;;4.23;100.00;101233.22;10259086;28;20045;-72
2024/02/13 03:40:29;;;;;;;14.82;12.32;;;;;;;4.26;100.00;101229.19;10263863;28;20041;-76
2024/02/13 03:45:25;;;;;;;13.45;11.75;;;;;;;4.37;100.00;101234.38;10257809;28;20620;-73
2024/02/13 03:50:22;;;;;;;13.10;11.75;;;;;;;4.28;100.00;101235.97;10248982;28;20677;-74
2024/02/13 03:55:19;;;;;;;14.32;11.70;;;;;;;4.18;100.00;101241.31;10257979;28;20045;-77
2024/02/13 04:00:17;;;;;;;16.83;11.98;;;;;;;4.07;100.00;101245.84;10253321;28;20052;-74
2024/02/13 04:05:14;;;;;;;16.45;12.93;;;;;;;3.98;100.00;101259.06;10260187;28;20080;-73
2024/02/13 04:10:11;;;;;;;22.65;13.13;;;;;;;3.90;100.00;101254.13;10257781;28;20041;-75
2024/02/13 04:15:08;;;;;;;13.68;12.52;;;;;;;3.95;100.00;101266.88;10261234;28;20525;-74
2024/02/13 04:20:05;;;;;;;14.85;13.35;;;;;;;4.02;100.00;101269.38;10257931;28;20496;-71
2024/02/13 04:25:01;;;;;;;13.35;12.15;;;;;;;4.02;100.00;101267.47;10257061;28;20091;-72
2024/02/13 04:29:58;;;;;;;14.35;13.02;;;;;;;4.07;100.00;101272.09;10254019;28;20110;-72
2024/02/13 04:34:54;;;;;;;15.15;13.52;;;;;;;4.10;100.00;101271.56;10249613;28;20170;-71
2024/02/13 04:39:51;;;;;;;15.07;13.30;;;;;;;4.00;100.00;101267.72;10255301;28;20441;-72
2024/02/13 04:44:47;;;;;;;16.30;14.63;;;;;;;3.89;100.00;101265.22;10246268;28;20045;-73
2024/02/13 04:49:44;;;;;;;19.23;14.65;;;;;;;3.83;100.00;101267.06;10261574;28;20041;-73
2024/02/13 04:54:41;;;;;;;16.13;14.45;;;;;;;3.86;100.00;101271.97;10254983;28;20049;-73
2024/02/13 04:59:47;;;;;;;20.23;15.48;;;;;;;3.83;100.00;101258.97;10244505;28;20393;-74
2024/02/13 05:10:01;;;;;;;16.95;15.18;;;;;;;3.77;100.00;101265.41;10254618;28;20045;-72
2024/02/13 05:14:59;;;;;;;21.13;16.73;;;;;;;3.76;100.00;101261.03;10259552;28;20052;-73
2024/02/13 05:19:55;;;;;;;21.45;17.00;;;;;;;3.73;100.00;101266.97;10251478;28;20044;-73
2024/02/13 05:24:52;;;;;;;18.52;16.17;;;;;;;3.70;100.00;101268.31;10260950;28;20527;-73
2024/02/13 05:29:48;;;;;;;19.58;16.90;;;;;;;3.70;100.00;101267.50;10254772;28;20060;-73
2024/02/13 05:34:45;;;;;;;19.98;17.67;;;;;;;3.68;100.00;101256.13;10253196;28;20513;-73
2024/02/13 05:39:43;;;;;;;23.08;18.42;;;;;;;3.68;100.00;101269.66;10273733;28;20460;-75
2024/02/13 05:44:39;;;;;;;20.40;17.88;;;;;;;3.64;100.00;101263.13;10263630;28;20163;-73
2024/02/13 05:49:36;;;;;;;24.25;17.45;;;;;;;3.62;100.00;101271.50;10261723;28;20095;-73
2024/02/13 05:54:34;;;;;;;20.58;17.88;;;;;;;3.67;100.00;101273.44;10257097;28;20519;-73
2024/02/13 05:59:31;;;;;;;22.65;17.45;;;;;;;3.65;100.00;101270.19;10256365;28;20124;-73
2024/02/13 06:04:28;;;;;;;24.98;18.35;;;;;;;3.58;100.00;101282.00;10252401;28;20044;-73
2024/02/13 06:09:25;;;;;;;20.08;18.15;;;;;;;3.54;100.00;101269.25;10264977;28;20049;-73
2024/02/13 06:14:22;;;;;;;28.30;19.30;;;;;;;3.55;100.00;101277.13;10263319;28;20052;-75
2024/02/13 06:19:19;;;;;;;21.75;18.10;;;;;;;3.53;100.00;101278.47;10259800;28;20076;-73
2024/02/13 06:24:15;;;;;;;22.08;18.38;;;;;;;3.54;100.00;101286.28;10259631;28;20045;-76
2024/02/13 06:29:12;;;;;;;22.40;18.83;;;;;;;3.53;100.00;101286.56;10263974;28;20046;-73
2024/02/13 06:34:09;;;;;;;23.75;18.77;;;;;;;3.53;100.00;101295.50;10249906;28;20515;-73
2024/02/13 06:39:05;;;;;;;24.80;18.55;;;;;;;3.55;100.00;101292.50;10258037;28;20041;-75
2024/02/13 06:44:05;;;;;;;25.38;19.52;;;;;;;3.62;100.00;101297.72;10253136;28;20086;-73
2024/02/13 06:49:02;;;;;;;23.48;18.73;;;;;;;3.73;100.00;101307.56;10262938;28;20041;-75
2024/02/13 06:54:01;;;;;;;26.45;18.75;;;;;;;3.75;100.00;101318.94;10266822;28;20045;-73
2024/02/13 06:58:58;;;;;;;21.85;18.45;;;;;;;3.67;100.00;101311.31;10261024;28;20076;-73
2024/02/13 07:03:55;;;;;;;23.90;19.98;;;;;;;3.59;100.00;101331.50;10261454;28;20513;-73
2024/02/13 07:08:52;;;;;;;26.00;20.08;;;;;;;3.57;100.00;101331.78;10263897;28;20496;-73
2024/02/13 07:13:48;;;;;;;22.30;20.00;;;;;;;3.56;100.00;101340.94;10255101;28;20263;-75
2024/02/13 07:18:45;;;;;;;21.88;19.27;;;;;;;3.55;100.00;101346.59;10263889;28;20063;-73
2024/02/13 07:23:41;;;;;;;28.42;21.45;;;;;;;3.51;100.00;101348.19;10263821;28;20036;-75
2024/02/13 07:28:41;;;;;;;32.58;22.15;;;;;;;3.56;100.00;101348.25;10264553;28;20673;-74
2024/02/13 07:33:38;;;;;;;26.80;21.98;;;;;;;3.57;100.00;101356.09;10260184;28;20067;-74
2024/02/13 07:38:35;;;;;;;28.38;21.67;;;;;;;3.63;100.00;101375.06;10260042;28;20094;-74
2024/02/13 07:43:32;;;;;;;25.35;21.27;;;;;;;3.70;100.00;101365.69;10261206;28;20049;-73
2024/02/13 07:48:28;;;;;;;28.15;21.52;;;;;;;3.86;100.00;101369.34;10264683;28;20099;-75
2024/02/13 07:53:26;;;;;;;31.70;22.75;;;;;;;4.11;100.00;101376.06;10263722;28;20057;-73
2024/02/13 07:58:22;;;;;;;32.45;22.88;;;;;;;4.31;100.00;101373.50;10264246;28;20121;-74
2024/02/13 08:03:20;;;;;;;25.73;21.70;;;;;;;4.37;100.00;101388.72;10265381;28;20046;-73
2024/02/13 08:08:16;;;;;;;25.73;21.63;;;;;;;4.38;100.00;101392.22;10262323;28;20111;-74
2024/02/13 08:13:13;;;;;;;30.20;21.10;;;;;;;4.39;100.00;101400.09;10256190;28;20467;-72
2024/02/13 08:18:09;;;;;;;29.75;20.48;;;;;;;4.47;100.00;101406.09;10267307;28;20052;-73
2024/02/13 08:23:06;;;;;;;29.92;20.63;;;;;;;4.51;100.00;101407.22;10261736;28;20048;-74
2024/02/13 08:28:03;;;;;;;31.65;20.17;;;;;;;4.68;100.00;101407.88;10252380;28;20049;-74
2024/02/13 08:33:01;;;;;;;25.05;20.38;;;;;;;4.59;100.00;101414.84;10261528;28;20083;-73
2024/02/13 08:37:57;;;;;;;25.50;20.80;;;;;;;4.76;100.00;101414.72;10261096;28;20045;-73
2024/02/13 08:42:56;;;;;;;22.50;18.38;;;;;;;4.85;100.00;101413.94;10272439;28;20040;-74
2024/02/13 08:47:53;;;;;;;25.63;18.00;;;;;;;4.99;100.00;101408.03;10265986;28;20132;-72
2024/02/13 08:52:49;;;;;;;25.55;18.40;;;;;;;5.00;100.00;101406.97;10260198;28;20064;-73
2024/02/13 08:57:46;;;;;;;25.67;18.75;;;;;;;5.10;100.00;101415.13;10276957;28;20045;-73
2024/02/13 09:02:42;;;;;;;28.80;17.92;;;;;;;5.13;100.00;101414.63;10262410;28;20071;-74
2024/02/13 09:07:40;;;;;;;21.38;16.70;;;;;;;5.21;100.00;101411.41;10259596;28;20467;-74
2024/02/13 09:12:37;;;;;;;21.70;16.60;;;;;;;5.32;100.00;101400.63;10266004;28;20037;-72
2024/02/13 09:17:33;;;;;;;24.48;16.65;;;;;;;5.62;100.00;101406.13;10267696;28;20038;-73
2024/02/13 09:22:30;;;;;;;19.38;16.10;;;;;;;5.59;100.00;101417.53;10252327;28;20456;-73
2024/02/13 09:27:27;;;;;;;23.42;16.83;;;;;;;5.66;100.00;101428.94;10265004;28;20515;-73
2024/02/13 09:32:24;;;;;;;22.63;15.68;;;;;;;5.86;100.00;101416.47;10261741;28;20124;-73
2024/02/13 09:37:20;;;;;;;23.55;16.80;;;;;;;5.96;100.00;101424.66;10268630;28;20094;-75
2024/02/13 09:42:17;;;;;;;20.13;17.25;;;;;;;5.88;100.00;101436.03;10265717;28;20046;-71
2024/02/13 09:47:14;;;;;;;20.83;17.00;;;;;;;5.72;100.00;101447.94;10266479;28;20045;-71
2024/02/13 09:52:13;;;;;;;25.40;17.55;;;;;;;5.69;100.00;101458.22;10268064;28;20063;-71
2024/02/13 09:57:10;;;;;;;24.50;17.02;;;;;;;5.80;100.00;101460.97;10262253;28;20067;-72
2024/02/13 10:02:08;;;;;;;23.98;17.17;;;;;;;5.72;100.00;101469.63;10266721;28;20087;-71
2024/02/13 10:07:05;;;;;;;25.70;16.90;;;;;;;5.77;100.00;101461.50;10272992;28;20073;-72
2024/02/13 10:12:12;;;;;;;24.13;17.50;;;;;;;5.90;100.00;101471.88;10269666;28;20051;-71
2024/02/13 10:17:14;;;;;;;20.52;14.98;;;;;;;6.06;100.00;101478.97;10269798;28;20045;-74
2024/02/13 10:22:11;;;;;;;30.37;16.00;;;;;;;6.21;100.00;101475.47;10265685;28;20128;-72
2024/02/13 10:27:09;;;;;;;19.88;15.63;;;;;;;6.09;100.00;101474.91;10269279;28;20049;-72
2024/02/13 10:32:07;;;;;;;21.10;15.43;;;;;;;6.07;100.00;101472.47;10260133;28;20504;-74
2024/02/13 10:37:10;;;;;;;27.30;16.42;;;;;;;6.03;100.00;101482.22;10256352;28;20413;-72
2024/02/13 10:42:15;;;;;;;20.92;15.65;;;;;;;6.16;100.00;101480.91;10256617;28;20131;-72
2024/02/13 10:47:18;;;;;;;21.55;15.25;;;;;;;6.17;100.00;101493.38;10261113;28;20083;-72
2024/02/13 10:52:15;;;;;;;24.20;16.20;;;;;;;6.43;100.00;101486.09;10269406;28;20041;-71
2024/02/13 10:57:14;;;;;;;24.20;16.70;;;;;;;6.65;100.00;101485.00;10257639;28;20036;-72
2024/02/13 11:02:17;;;;;;;30.30;17.10;;;;;;;6.70;100.00;101474.13;10260158;28;20072;-71
2024/02/13 11:07:15;;;;;;;21.52;14.93;;;;;;;6.71;100.00;101475.75;10262634;28;20531;-71
2024/02/13 11:12:13;;;;;;;21.17;15.57;;;;;;;6.73;100.00;101476.31;10266304;28;20037;-71
2024/02/13 11:17:12;;;;;;;30.08;17.27;;;;;;;6.95;100.00;101476.00;10258579;28;20048;-71
2024/02/13 11:22:09;;;;;;;23.67;15.73;;;;;;;6.42;100.00;101465.44;10258316;28;20052;-71
2024/02/13 11:27:07;;;;;;;20.80;16.83;;;;;;;6.34;100.00;101479.56;10261972;28;20043;-74
2024/02/13 11:32:25;;;;;;;18.63;15.48;;;;;;;6.36;100.00;101474.69;10256388;28;20132;-73
2024/02/13 11:37:27;;;;;;;;;;;;;;;6.52;100.00;101483.63;10266153;28;20127;-71
2024/02/13 11:42:25;;;;;;;26.08;16.73;;;;;;;6.74;100.00;101480.66;10260915;28;19924;-71
2024/02/13 11:47:25;;;;;;;18.77;15.95;;;;;;;6.89;100.00;101483.34;10259851;28;20353;-72
2024/02/13 11:52:23;;;;;;;18.92;15.23;;;;;;;6.65;100.00;101476.84;10261812;28;20045;-72
2024/02/13 11:57:24;;;;;;;21.85;15.75;;;;;;;6.51;100.00;101490.16;10265444;28;20045;-72
2024/02/13 12:02:22;;;;;;;20.25;15.40;;;;;;;6.59;100.00;101496.94;10249161;28;20055;-71
2024/02/13 12:07:18;;;;;;;21.77;16.13;;;;;;;6.46;100.00;101490.97;10266288;28;20049;-71
2024/02/13 12:12:15;;;;;;;22.85;17.20;;;;;;;6.32;100.00;101511.59;10259968;28;20056;-72
2024/02/13 12:17:12;;;;;;;28.45;19.05;;;;;;;6.38;100.00;101507.78;10269108;28;20428;-72
2024/02/13 12:22:10;;;;;;;26.42;19.08;;;;;;;6.17;100.00;101508.84;10273027;28;20846;-72
2024/02/13 12:27:12;;;;;;;21.20;17.40;;;;;;;6.00;100.00;101526.19;10269091;28;20590;-73
2024/02/13 12:32:16;;;;;;;23.15;19.15;;;;;;;5.95;100.00;101534.34;10257578;28;20045;-71
2024/02/13 12:37:16;;;;;;;26.85;20.73;;;;;;;5.86;100.00;101541.31;10269575;28;20072;-72
2024/02/13 12:42:13;;;;;;;29.33;21.13;;;;;;;5.98;100.00;101550.06;10266158;28;20041;-73
2024/02/13 12:47:14;;;;;;;34.03;21.27;;;;;;;6.03;100.00;101547.38;10270142;28;20045;-71
2024/02/13 12:52:17;;;;;;;30.05;21.00;;;;;;;6.09;100.00;101543.59;10273090;28;20055;-71
2024/02/13 12:57:14;;;;;;;29.48;22.20;;;;;;;5.99;100.00;101540.88;10273544;28;20033;-70
2024/02/13 13:02:13;;;;;;;31.25;21.35;;;;;;;6.14;100.00;101547.41;10262847;28;20041;-71
2024/02/13 13:07:11;;;;;;;24.38;21.25;;;;;;;6.30;100.00;101540.94;10271903;28;20053;-71
2024/02/13 13:12:08;;;;;;;25.30;20.92;;;;;;;6.29;100.00;101540.13;10258111;28;20061;-72
2024/02/13 13:17:09;;;;;;;23.88;18.73;;;;;;;6.26;100.00;101532.50;10267075;28;20049;-71
2024/02/13 13:22:05;;;;;;;31.13;20.48;;;;;;;6.33;100.00;101524.09;10267202;28;20489;-72
2024/02/13 13:27:05;;;;;;;26.65;18.95;;;;;;;6.44;100.00;101525.75;10264283;28;20560;-71
2024/02/13 13:32:06;;;;;;;22.08;19.60;;;;;;;6.62;100.00;101520.88;10257164;28;20037;-71
2024/02/13 13:37:02;;;;;;;27.77;18.90;;;;;;;6.66;100.00;101519.22;10254010;28;20037;-71
2024/02/13 13:42:07;;;;;;;26.73;20.80;;;;;;;6.51;100.00;101514.63;10261332;28;20127;-71
2024/02/13 13:47:07;;;;;;;24.40;19.48;;;;;;;6.46;100.00;101523.56;10268866;28;20711;-72
2024/02/13 13:52:05;;;;;;;22.92;19.63;;;;;;;6.49;100.00;101528.47;10263024;28;20127;-72
2024/02/13 13:57:02;;;;;;;25.75;18.30;;;;;;;6.57;100.00;101534.44;10267065;28;20048;-72
2024/02/13 14:02:00;;;;;;;24.38;18.10;;;;;;;6.63;100.00;101534.16;10270796;28;20048;-71
2024/02/13 14:06:57;;;;;;;24.67;18.50;;;;;;;6.61;100.00;101535.53;10267584;28;20061;-72
2024/02/13 14:11:53;;;;;;;24.60;19.20;;;;;;;6.57;100.00;101534.44;10258021;28;20124;-72
2024/02/13 14:16:51;;;;;;;22.90;19.35;;;;;;;6.41;100.00;101539.88;10263739;28;20148;-72
2024/02/13 14:21:48;;;;;;;24.02;18.77;;;;;;;6.37;100.00;101544.22;10254940;28;20052;-72
2024/02/13 14:26:45;;;;;;;26.40;19.80;;;;;;;6.43;100.00;101543.13;10264949;28;20671;-73
2024/02/13 14:31:42;;;;;;;24.83;19.25;;;;;;;6.44;100.00;101536.59;10262087;28;20158;-71
2024/02/13 14:36:38;;;;;;;24.80;18.58;;;;;;;6.59;100.00;101545.84;10256665;28;20531;-72
2024/02/13 14:41:41;;;;;;;25.08;18.98;;;;;;;6.66;100.00;101540.97;10262927;28;20350;-71
2024/02/13 14:46:38;;;;;;;25.02;19.13;;;;;;;6.67;100.00;101545.31;10261704;28;20044;-72
2024/02/13 14:51:34;;;;;;;21.40;16.83;;;;;;;6.66;100.00;101543.69;10273409;28;20098;-72
2024/02/13 14:56:31;;;;;;;22.83;17.50;;;;;;;6.70;100.00;101544.78;10270499;28;20069;-72
2024/02/13 15:01:28;;;;;;;22.20;18.25;;;;;;;6.72;100.00;101545.31;10269263;28;20076;-73
2024/02/13 15:06:24;;;;;;;26.73;17.80;;;;;;;6.66;100.00;101543.69;10274594;28;20040;-73
2024/02/13 15:11:21;;;;;;;21.30;17.35;;;;;;;6.70;100.00;101544.78;10271267;28;20090;-71
2024/02/13 15:16:18;;;;;;;19.60;17.30;;;;;;;6.78;100.00;101551.56;10258329;28;20044;-71
2024/02/13 15:21:15;;;;;;;27.85;19.20;;;;;;;6.73;100.00;101549.69;10262096;28;20468;-71
2024/02/13 15:26:12;;;;;;;24.10;18.38;;;;;;;6.73;100.00;101560.56;10259760;28;20041;-71
2024/02/13 15:31:09;;;;;;;20.83;18.65;;;;;;;6.74;100.00;101567.63;10263990;28;20045;-72
2024/02/13 15:36:12;;;;;;;21.88;19.30;;;;;;;6.75;100.00;101569.22;10266460;28;21315;-73
2024/02/13 15:51:39;;;;;;;25.00;19.27;;;;;;;6.79;100.00;101574.97;10260044;28;20037;-71
2024/02/13 15:56:36;;;;;;;20.05;16.40;;;;;;;6.79;100.00;101573.06;10256851;28;20500;-71
2024/02/13 16:01:34;;;;;;;22.10;17.67;;;;;;;6.78;100.00;101576.88;10254100;28;20115;-71
2024/02/13 16:06:36;;;;;;;20.73;17.23;;;;;;;6.78;100.00;101593.19;10259115;28;20071;-71
2024/02/13 16:11:32;;;;;;;19.07;17.07;;;;;;;6.70;100.00;101594.50;10251069;28;20139;-71
2024/02/13 16:16:29;;;;;;;18.75;16.95;;;;;;;6.63;100.00;101598.59;10263437;28;20045;-73
2024/02/13 16:21:26;;;;;;;19.95;17.65;;;;;;;6.62;100.00;101596.97;10246083;28;20416;-75
2024/02/13 16:26:26;;;;;;;19.33;17.42;;;;;;;6.64;100.00;101597.50;10239868;28;20523;-72
2024/02/13 16:31:23;;;;;;;20.35;16.38;;;;;;;6.69;100.00;101605.66;10248572;28;20132;-72
2024/02/13 16:36:21;;;;;;;18.30;16.23;;;;;;;6.72;100.00;101607.84;10246865;28;20072;-72
2024/02/13 16:41:19;;;;;;;17.35;15.77;;;;;;;6.68;100.00;101612.16;10250629;28;20052;-72
2024/02/13 16:46:21;;;;;;;21.05;16.85;;;;;;;6.68;100.00;101606.75;10250430;28;20390;-74
2024/02/13 16:51:18;;;;;;;21.55;16.77;;;;;;;6.68;100.00;101617.59;10236081;28;20428;-74
2024/02/13 16:56:16;;;;;;;19.27;16.98;;;;;;;6.64;100.00;101627.41;10248694;28;20556;-72
2024/02/13 17:01:14;;;;;;;18.75;16.85;;;;;;;6.59;100.00;101630.09;10258178;28;20041;-72
2024/02/13 17:06:11;;;;;;;18.88;16.58;;;;;;;6.59;100.00;101632.81;10265791;28;20126;-72
2024/02/13 17:11:11;;;;;;;18.48;16.52;;;;;;;6.53;100.00;101638.22;10261036;28;20467;-71
2024/02/13 17:16:08;;;;;;;18.65;16.73;;;;;;;6.52;100.00;101642.06;10261550;28;20056;-74
2024/02/13 17:21:05;;;;;;;16.85;15.40;;;;;;;6.51;100.00;101651.28;10255669;28;20519;-73
2024/02/13 17:26:01;;;;;;;17.23;15.25;;;;;;;6.48;100.00;101643.66;10257606;28;20037;-72
2024/02/13 17:30:58;;;;;;;16.60;15.07;;;;;;;6.53;100.00;101649.09;10269732;28;20057;-72
2024/02/13 17:35:55;;;;;;;18.92;15.00;;;;;;;6.49;100.00;101655.34;10263691;28;20161;-74
2024/02/13 17:40:52;;;;;;;16.55;15.05;;;;;;;6.49;100.00;101658.88;10249942;28;20097;-72
2024/02/13 17:45:49;;;;;;;15.90;14.35;;;;;;;6.50;100.00;101644.22;10247580;28;20047;-72
2024/02/13 17:50:46;;;;;;;16.30;14.48;;;;;;;6.48;100.00;101640.94;10249529;28;20056;-73
2024/02/13 17:55:43;;;;;;;16.02;14.32;;;;;;;6.45;100.00;101640.66;10260120;28;20075;-73
2024/02/13 18:00:41;;;;;;;16.08;13.85;;;;;;;6.41;100.00;101640.38;10263085;28;20127;-73
2024/02/13 18:05:39;;;;;;;16.83;14.93;;;;;;;6.41;100.00;101639.56;10261202;28;20131;-77
2024/02/13 18:10:35;;;;;;;15.50;13.55;;;;;;;6.43;100.00;101637.38;10243569;28;20041;-73
2024/02/13 18:15:32;;;;;;;15.38;13.50;;;;;;;6.44;100.00;101642.56;10255997;28;20042;-73
2024/02/13 18:20:29;;;;;;;16.73;13.15;;;;;;;6.44;100.00;101639.84;10258913;28;20052;-71
2024/02/13 18:25:26;;;;;;;15.43;13.43;;;;;;;6.45;100.00;101625.19;10254203;28;20074;-75
2024/02/13 18:30:24;;;;;;;19.13;13.93;;;;;;;6.41;100.00;101626.81;10260795;28;20550;-72
2024/02/13 18:35:20;;;;;;;15.70;14.07;;;;;;;6.43;100.00;101630.06;10254106;28;20075;-73
2024/02/13 18:40:18;;;;;;;15.13;13.20;;;;;;;6.43;100.00;101627.34;10264063;28;20118;-72
2024/02/13 18:45:14;;;;;;;15.30;13.75;;;;;;;6.45;100.00;101630.63;10249523;28;20053;-75
2024/02/13 18:50:13;;;;;;;15.23;13.25;;;;;;;6.44;100.00;101620.81;10228742;28;20052;-73
2024/02/13 18:55:10;;;;;;;19.98;12.93;;;;;;;6.40;100.00;101627.06;10265704;28;20040;-72
2024/02/13 19:00:09;;;;;;;14.05;12.73;;;;;;;6.44;100.00;101628.97;10255300;28;20485;-73
2024/02/13 19:05:06;;;;;;;14.40;13.05;;;;;;;6.43;100.00;101637.38;10255821;28;20041;-73
2024/02/13 19:10:09;;;;;;;15.90;13.60;;;;;;;6.41;100.00;101624.09;10259851;28;20649;-72
2024/02/13 19:15:06;;;;;;;16.13;13.30;;;;;;;6.37;100.00;101631.13;10253643;28;20044;-73
2024/02/13 19:20:03;;;;;;;16.45;12.40;;;;;;;6.36;100.00;101634.94;10261977;28;20049;-73
2024/02/13 19:25:00;;;;;;;15.23;12.40;;;;;;;6.35;100.00;101627.84;10260842;28;20102;-72
2024/02/13 19:29:56;;;;;;;15.25;12.68;;;;;;;6.31;100.00;101619.44;10256632;28;20115;-72
2024/02/13 19:34:53;;;;;;;17.75;12.80;;;;;;;6.26;100.00;101624.03;10261578;28;20075;-73
2024/02/13 19:39:50;;;;;;;13.85;12.65;;;;;;;6.29;100.00;101610.75;10261281;28;20558;-75
2024/02/13 19:44:47;;;;;;;14.02;12.63;;;;;;;6.27;100.00;101622.97;10256244;28;20041;-74
2024/02/13 19:49:44;;;;;;;12.25;11.10;;;;;;;6.30;100.00;101616.97;10266168;28;20176;-73
2024/02/13 19:54:40;;;;;;;17.05;11.68;;;;;;;6.34;100.00;101607.22;10253990;28;20492;-73
2024/02/13 19:59:38;;;;;;;13.13;11.35;;;;;;;6.31;100.00;101602.31;10247041;28;20041;-74
2024/02/13 20:04:34;;;;;;;14.48;13.18;;;;;;;6.32;100.00;101603.97;10248567;28;20064;-74
2024/02/13 20:09:31;;;;;;;13.30;11.98;;;;;;;6.32;100.00;101598.53;10254909;28;20048;-71
2024/02/13 20:14:28;;;;;;;15.15;11.60;;;;;;;6.36;100.00;101607.78;10259708;28;20044;-72
2024/02/13 20:19:25;;;;;;;13.82;11.25;;;;;;;6.41;100.00;101613.22;10255594;28;20524;-71
2024/02/13 20:24:24;;;;;;;11.60;10.40;;;;;;;6.43;100.00;101605.63;10263693;28;20114;-72
2024/02/13 20:29:21;;;;;;;13.45;10.18;;;;;;;6.44;100.00;101604.53;10242187;28;20052;-71
2024/02/13 20:34:17;;;;;;;11.70;9.48;;;;;;;6.47;100.00;101614.84;10252899;28;20045;-73
2024/02/13 20:39:14;;;;;;;17.52;10.25;;;;;;;6.43;100.00;101611.06;10254679;28;20136;-72
2024/02/13 20:44:11;;;;;;;10.95;9.88;;;;;;;6.43;100.00;101624.63;10260022;28;20052;-73
2024/02/13 20:49:08;;;;;;;11.77;10.00;;;;;;;6.46;100.00;101615.94;10260098;28;20040;-73
2024/02/13 20:54:05;;;;;;;12.57;10.57;;;;;;;6.44;100.00;101609.97;10248076;28;20141;-77
2024/02/13 20:59:02;;;;;;;15.35;10.18;;;;;;;6.52;100.00;101617.59;10251039;28;20408;-73
2024/02/13 21:03:58;;;;;;;14.43;10.35;;;;;;;6.53;100.00;101611.06;10255802;28;20053;-72
2024/02/13 21:08:55;;;;;;;10.70;9.60;;;;;;;6.48;100.00;101613.78;10262045;28;20051;-71
2024/02/13 21:13:54;;;;;;;22.80;10.57;;;;;;;6.47;100.00;101612.13;10263753;28;20046;-71
2024/02/13 21:18:50;;;;;;;14.65;10.40;;;;;;;6.43;100.00;101613.78;10262526;28;20044;-73
2024/02/13 21:23:51;;;;;;;13.65;9.70;;;;;;;6.35;100.00;101608.84;10267536;28;20037;-71
2024/02/13 21:28:49;;;;;;;13.65;10.75;;;;;;;6.33;100.00;101611.00;10260005;28;20045;-74
2024/02/13 21:33:46;;;;;;;12.32;10.32;;;;;;;6.32;100.00;101612.09;10265338;28;20048;-73
2024/02/13 21:38:43;;;;;;;10.70;9.70;;;;;;;6.31;100.00;101602.31;10258880;28;20041;-75
2024/02/13 21:43:39;;;;;;;10.98;9.73;;;;;;;6.32;100.00;101609.38;10257060;28;20131;-79
2024/02/13 21:48:36;;;;;;;11.52;9.85;;;;;;;6.29;100.00;101601.78;10266299;28;20500;-75
2024/02/13 21:53:33;;;;;;;13.88;10.20;;;;;;;6.29;100.00;101599.06;10270686;28;20098;-75
2024/02/13 21:58:30;;;;;;;16.25;9.60;;;;;;;6.30;100.00;101606.13;10259749;28;20068;-74
2024/02/13 22:03:26;;;;;;;11.73;9.80;;;;;;;6.25;100.00;101592.53;10264045;28;20098;-72
2024/02/13 22:08:23;;;;;;;13.95;9.50;;;;;;;6.21;100.00;101597.66;10249765;28;20501;-72
2024/02/13 22:13:21;;;;;;;12.60;9.48;;;;;;;6.16;100.00;101589.50;10266699;28;20443;-72
2024/02/13 22:18:18;;;;;;;11.55;9.65;;;;;;;6.01;100.00;101598.44;10262444;28;20484;-72
2024/02/13 22:23:18;;;;;;;11.45;9.52;;;;;;;5.97;100.00;101591.88;10262268;28;20103;-72
2024/02/13 22:28:16;;;;;;;10.48;9.38;;;;;;;5.90;100.00;101589.38;10260821;28;20045;-72
2024/02/13 22:33:12;;;;;;;10.18;8.90;;;;;;;5.86;100.00;101592.88;10259831;28;20045;-73